createdAt,value
2022-09-18T00:01:31.608Z,8.00
2022-09-18T00:03:59.354Z,7.97
2022-09-18T00:06:27.467Z,8.06
2022-09-18T00:08:54.717Z,8.01
2022-09-18T00:11:22.329Z,8.02
2022-09-18T00:13:49.417Z,8.03
2022-09-18T00:16:17.121Z,8.05
2022-09-18T00:18:43.764Z,8.10
2022-09-18T00:21:11.884Z,8.02
2022-09-18T00:23:38.821Z,8.03
2022-09-18T00:26:05.415Z,8.05
2022-09-18T00:28:32.469Z,8.04
2022-09-18T00:31:06.073Z,8.07
2022-09-18T00:33:32.695Z,8.07
2022-09-18T00:36:03.240Z,8.07
2022-09-18T00:38:31.814Z,8.05
2022-09-18T00:41:02.133Z,8.08
2022-09-18T00:43:29.651Z,8.10
2022-09-18T00:45:58.046Z,8.09
2022-09-18T00:48:27.937Z,8.15
2022-09-18T00:50:54.248Z,8.15
2022-09-18T00:53:20.780Z,8.07
2022-09-18T00:55:47.225Z,8.03
2022-09-18T00:58:13.727Z,8.03
2022-09-18T01:00:40.244Z,8.02
2022-09-18T01:03:06.589Z,8.02
2022-09-18T01:06:00.479Z,8.03
2022-09-18T01:08:32.689Z,8.04
2022-09-18T01:11:19.343Z,8.07
2022-09-18T01:13:54.205Z,8.08
2022-09-18T01:16:45.825Z,8.10
2022-09-18T01:19:31.468Z,8.11
2022-09-18T01:22:04.972Z,8.16
2022-09-18T01:24:33.066Z,8.18
2022-09-18T01:27:02.747Z,8.18
2022-09-18T01:29:29.426Z,8.23
2022-09-18T01:31:59.025Z,8.23
2022-09-18T01:34:28.908Z,8.27
2022-09-18T01:37:01.043Z,8.25
2022-09-18T01:39:39.771Z,8.26
2022-09-18T01:42:07.221Z,8.26
2022-09-18T01:44:34.683Z,8.28
2022-09-18T01:47:04.063Z,8.28
2022-09-18T01:49:33.758Z,8.29
2022-09-18T01:52:06.722Z,8.29
2022-09-18T01:54:34.237Z,8.30
2022-09-18T01:57:07.542Z,8.30
2022-09-18T01:59:36.889Z,8.26
2022-09-18T02:02:05.078Z,8.26
2022-09-18T02:04:33.132Z,8.21
2022-09-18T02:07:18.005Z,8.20
2022-09-18T02:09:44.627Z,8.21
2022-09-18T02:12:12.731Z,8.22
2022-09-18T02:14:40.612Z,8.18
2022-09-18T02:17:09.485Z,8.15
2022-09-18T02:19:38.229Z,8.12
2022-09-18T02:22:09.608Z,8.11
2022-09-18T02:24:37.572Z,8.03
2022-09-18T02:27:05.865Z,7.98
2022-09-18T02:29:32.519Z,7.89
2022-09-18T02:31:59.720Z,7.82
2022-09-18T02:34:26.753Z,7.83
2022-09-18T02:36:59.332Z,7.80
2022-09-18T02:39:33.965Z,7.79
2022-09-18T02:42:03.426Z,7.81
2022-09-18T02:44:48.501Z,7.77
2022-09-18T02:47:28.457Z,7.82
2022-09-18T02:49:54.895Z,7.84
2022-09-18T02:52:26.823Z,7.81
2022-09-18T02:54:55.633Z,7.83
2022-09-18T02:57:28.107Z,7.87
2022-09-18T02:59:56.905Z,7.88
2022-09-18T03:02:24.004Z,7.93
2022-09-18T03:04:50.532Z,7.94
2022-09-18T03:07:17.483Z,7.91
2022-09-18T03:09:43.826Z,7.92
2022-09-18T03:12:10.398Z,7.89
2022-09-18T03:14:36.806Z,7.90
2022-09-18T03:17:03.633Z,7.91
2022-09-18T03:19:30.154Z,7.90
2022-09-18T03:21:56.635Z,7.87
2022-09-18T03:24:25.426Z,7.88
2022-09-18T03:26:52.081Z,7.87
2022-09-18T03:29:18.418Z,7.88
2022-09-18T03:31:44.828Z,7.83
2022-09-18T03:34:11.262Z,7.81
2022-09-18T03:36:37.768Z,7.80
2022-09-18T03:39:04.722Z,7.80
2022-09-18T03:41:31.206Z,7.80
2022-09-18T03:43:57.742Z,7.79
2022-09-18T03:46:24.227Z,7.75
2022-09-18T03:48:51.311Z,7.75
2022-09-18T03:51:19.019Z,7.74
2022-09-18T03:53:45.999Z,7.70
2022-09-18T03:56:13.484Z,7.70
2022-09-18T03:58:40.040Z,7.68
2022-09-18T04:01:07.103Z,7.70
2022-09-18T04:03:34.338Z,7.69
2022-09-18T04:06:00.745Z,7.69
2022-09-18T04:08:27.134Z,7.66
2022-09-18T04:10:53.478Z,7.66
2022-09-18T04:13:19.828Z,7.65
2022-09-18T04:15:49.911Z,7.61
2022-09-18T04:18:17.084Z,7.60
2022-09-18T04:20:43.749Z,7.57
2022-09-18T04:23:12.569Z,7.56
2022-09-18T04:25:39.967Z,7.55
2022-09-18T04:28:06.543Z,7.53
2022-09-18T04:30:32.998Z,7.52
2022-09-18T04:32:59.348Z,7.49
2022-09-18T04:35:25.998Z,7.49
2022-09-18T04:37:52.278Z,7.52
2022-09-18T04:40:18.777Z,7.50
2022-09-18T04:42:45.118Z,7.51
2022-09-18T04:45:11.621Z,7.53
2022-09-18T04:47:37.932Z,7.52
2022-09-18T04:50:04.972Z,7.52
2022-09-18T04:52:31.358Z,7.52
2022-09-18T04:54:57.658Z,7.52
2022-09-18T04:57:24.012Z,7.54
2022-09-18T04:59:50.439Z,7.53
2022-09-18T05:02:18.265Z,7.51
2022-09-18T05:04:44.758Z,7.49
2022-09-18T05:07:11.087Z,7.49
2022-09-18T05:09:37.534Z,7.50
2022-09-18T05:12:03.939Z,7.50
2022-09-18T05:14:30.261Z,7.48
2022-09-18T05:16:56.664Z,7.46
2022-09-18T05:19:23.368Z,7.48
2022-09-18T05:21:50.449Z,7.46
2022-09-18T05:24:17.615Z,7.45
2022-09-18T05:26:44.820Z,7.45
2022-09-18T05:29:11.459Z,7.45
2022-09-18T05:31:37.993Z,7.44
2022-09-18T05:34:04.464Z,7.45
2022-09-18T05:36:30.858Z,7.46
2022-09-18T05:38:57.247Z,7.47
2022-09-18T05:41:23.579Z,7.48
2022-09-18T05:43:50.026Z,7.50
2022-09-18T05:46:16.346Z,7.51
2022-09-18T05:48:43.207Z,7.49
2022-09-18T05:51:09.502Z,7.49
2022-09-18T05:53:35.805Z,7.47
2022-09-18T05:56:02.236Z,7.48
2022-09-18T05:58:28.540Z,7.50
2022-09-18T06:00:58.796Z,7.49
2022-09-18T06:03:25.226Z,7.51
2022-09-18T06:05:52.333Z,7.47
2022-09-18T06:08:18.743Z,7.47
2022-09-18T06:10:45.042Z,7.48
2022-09-18T06:13:13.213Z,7.48
2022-09-18T06:15:39.761Z,7.47
2022-09-18T06:18:09.629Z,7.49
2022-09-18T06:20:36.202Z,7.48
2022-09-18T06:23:02.700Z,7.45
2022-09-18T06:25:29.786Z,7.45
2022-09-18T06:27:58.649Z,7.45
2022-09-18T06:30:26.205Z,7.45
2022-09-18T06:32:52.642Z,7.47
2022-09-18T06:35:18.918Z,7.46
2022-09-18T06:37:45.291Z,7.47
2022-09-18T06:40:12.019Z,7.50
2022-09-18T06:42:41.616Z,7.54
2022-09-18T06:45:10.549Z,7.62
2022-09-18T06:47:37.050Z,7.61
2022-09-18T06:50:03.778Z,7.64
2022-09-18T06:52:31.542Z,7.69
2022-09-18T06:54:57.859Z,7.72
2022-09-18T06:57:24.226Z,7.77
2022-09-18T06:59:50.537Z,7.81
2022-09-18T07:02:19.579Z,7.86
2022-09-18T07:04:46.959Z,7.91
2022-09-18T07:07:13.258Z,7.99
2022-09-18T07:09:39.576Z,7.98
2022-09-18T07:12:05.952Z,8.00
2022-09-18T07:14:32.305Z,8.05
2022-09-18T07:16:58.585Z,8.08
2022-09-18T07:19:24.876Z,8.11
2022-09-18T07:21:51.737Z,8.15
2022-09-18T07:24:18.037Z,8.15
2022-09-18T07:26:44.296Z,8.22
2022-09-18T07:29:10.564Z,8.28
2022-09-18T07:31:37.044Z,8.34
2022-09-18T07:34:03.402Z,8.40
2022-09-18T07:36:29.704Z,8.38
2022-09-18T07:38:56.162Z,8.44
2022-09-18T07:41:22.418Z,8.45
2022-09-18T07:43:49.818Z,8.43
2022-09-18T07:46:16.093Z,8.40
2022-09-18T07:48:42.417Z,8.43
2022-09-18T07:51:08.797Z,8.48
2022-09-18T07:53:37.456Z,8.52
2022-09-18T07:56:07.913Z,8.54
2022-09-18T07:58:34.213Z,8.58
2022-09-18T08:01:02.423Z,8.59
2022-09-18T08:03:28.932Z,8.61
2022-09-18T08:05:55.655Z,8.64
2022-09-18T08:08:21.968Z,8.68
2022-09-18T08:10:48.303Z,8.66
2022-09-18T08:13:14.617Z,8.59
2022-09-18T08:15:41.808Z,8.60
2022-09-18T08:18:08.699Z,8.67
2022-09-18T08:20:35.135Z,8.70
2022-09-18T08:23:05.423Z,8.78
2022-09-18T08:25:31.977Z,9.03
2022-09-18T08:27:58.997Z,9.30
2022-09-18T08:30:25.276Z,9.46
2022-09-18T08:32:51.548Z,9.55
2022-09-18T08:35:17.885Z,9.64
2022-09-18T08:37:48.508Z,9.81
2022-09-18T08:40:16.255Z,9.82
2022-09-18T08:42:57.544Z,10.02
2022-09-18T08:45:29.855Z,9.83
2022-09-18T08:47:58.389Z,10.16
2022-09-18T08:50:29.222Z,10.47
2022-09-18T08:53:02.123Z,10.34
2022-09-18T08:55:31.107Z,10.30
2022-09-18T08:58:03.115Z,10.57
2022-09-18T09:00:43.055Z,10.72
2022-09-18T09:03:24.942Z,11.02
2022-09-18T09:05:58.730Z,11.04
2022-09-18T09:08:25.067Z,10.69
2022-09-18T09:10:57.461Z,10.63
2022-09-18T09:13:26.996Z,10.39
2022-09-18T09:15:53.535Z,10.51
2022-09-18T09:18:46.415Z,10.93
2022-09-18T09:21:22.290Z,11.12
2022-09-18T09:23:48.798Z,11.07
2022-09-18T09:26:17.615Z,11.06
2022-09-18T09:28:47.006Z,11.34
2022-09-18T09:31:14.080Z,11.21
2022-09-18T09:33:49.427Z,11.28
2022-09-18T09:36:16.827Z,11.00
2022-09-18T09:38:58.384Z,10.94
2022-09-18T09:41:34.706Z,11.11
2022-09-18T09:44:21.285Z,11.53
2022-09-18T09:46:55.883Z,11.39
2022-09-18T09:49:29.652Z,11.27
2022-09-18T09:52:09.150Z,10.79
2022-09-18T09:54:35.977Z,10.91
2022-09-18T09:57:15.501Z,10.99
2022-09-18T09:59:44.765Z,11.24
2022-09-18T10:02:11.086Z,11.36
2022-09-18T10:04:41.090Z,11.52
2022-09-18T10:07:13.179Z,11.59
2022-09-18T10:10:05.873Z,11.78
2022-09-18T10:12:36.600Z,11.69
2022-09-18T10:15:11.825Z,11.55
2022-09-18T10:17:39.896Z,11.40
2022-09-18T10:20:06.856Z,11.08
2022-09-18T10:22:33.524Z,11.16
2022-09-18T10:25:13.252Z,11.14
2022-09-18T10:27:39.514Z,11.51
2022-09-18T10:30:14.939Z,12.09
2022-09-18T10:32:41.800Z,12.32
2022-09-18T10:35:23.407Z,12.45
2022-09-18T10:37:49.783Z,12.46
2022-09-18T10:40:40.113Z,12.63
2022-09-18T10:43:07.287Z,12.89
2022-09-18T10:45:37.997Z,13.07
2022-09-18T10:48:07.657Z,13.05
2022-09-18T10:50:34.638Z,12.88
2022-09-18T10:53:19.831Z,12.82
2022-09-18T10:55:53.882Z,12.51
2022-09-18T10:58:26.609Z,12.84
2022-09-18T11:01:05.489Z,13.33
2022-09-18T11:03:42.674Z,13.48
2022-09-18T11:06:14.533Z,13.57
2022-09-18T11:08:42.635Z,13.08
2022-09-18T11:11:12.265Z,13.18
2022-09-18T11:13:42.838Z,12.87
2022-09-18T11:16:09.155Z,12.74
2022-09-18T11:18:35.642Z,12.53
2022-09-18T11:21:04.064Z,12.26
2022-09-18T11:23:31.569Z,11.78
2022-09-18T11:26:11.898Z,10.95
2022-09-18T11:28:38.730Z,9.68
2022-09-18T11:31:14.687Z,9.51
2022-09-18T11:33:50.664Z,9.16
2022-09-18T11:36:23.083Z,9.44
2022-09-18T11:38:49.634Z,9.42
2022-09-18T11:41:26.302Z,9.41
2022-09-18T11:44:00.848Z,9.69
2022-09-18T11:46:46.066Z,9.97
2022-09-18T11:49:17.524Z,10.46
2022-09-18T11:51:55.729Z,10.85
2022-09-18T11:54:26.241Z,11.28
2022-09-18T11:56:54.730Z,11.84
2022-09-18T11:59:25.531Z,11.95
2022-09-18T12:01:54.145Z,11.62
2022-09-18T12:04:35.599Z,12.03
2022-09-18T12:07:14.258Z,11.98
2022-09-18T12:09:53.932Z,12.30
2022-09-18T12:12:22.378Z,11.96
2022-09-18T12:14:56.949Z,12.32
2022-09-18T12:17:43.410Z,12.17
2022-09-18T12:20:17.568Z,12.17
2022-09-18T12:22:57.587Z,11.88
2022-09-18T12:25:28.718Z,11.18
2022-09-18T12:28:01.296Z,10.83
2022-09-18T12:30:36.454Z,10.72
2022-09-18T12:33:21.339Z,10.52
2022-09-18T12:35:50.697Z,10.63
2022-09-18T12:38:30.521Z,10.92
2022-09-18T12:41:01.439Z,11.22
2022-09-18T12:43:50.690Z,11.40
2022-09-18T12:46:20.176Z,11.68
2022-09-18T12:49:05.335Z,11.97
2022-09-18T12:51:36.203Z,11.88
2022-09-18T12:54:16.913Z,11.76
2022-09-18T12:56:49.125Z,12.02
2022-09-18T12:59:41.730Z,12.06
2022-09-18T13:02:14.216Z,12.23
2022-09-18T13:04:43.480Z,12.11
2022-09-18T13:07:17.975Z,11.96
2022-09-18T13:09:50.121Z,11.98
2022-09-18T13:12:19.720Z,11.92
2022-09-18T13:14:48.897Z,11.79
2022-09-18T13:17:18.338Z,11.54
2022-09-18T13:19:47.971Z,11.39
2022-09-18T13:22:16.403Z,11.54
2022-09-18T13:24:43.790Z,11.55
2022-09-18T13:27:12.420Z,11.51
2022-09-18T13:29:49.026Z,11.56
2022-09-18T13:32:17.490Z,11.58
2022-09-18T13:34:54.067Z,11.55
2022-09-18T13:37:22.839Z,11.57
2022-09-18T13:40:12.020Z,11.63
2022-09-18T13:42:39.555Z,11.61
2022-09-18T13:45:13.272Z,11.53
2022-09-18T13:47:58.236Z,11.69
2022-09-18T13:50:24.519Z,11.72
2022-09-18T13:52:54.223Z,11.71
2022-09-18T13:55:21.996Z,11.73
2022-09-18T13:57:48.672Z,11.68
2022-09-18T14:00:20.957Z,11.69
2022-09-18T14:02:48.495Z,11.62
2022-09-18T14:05:29.911Z,11.60
2022-09-18T14:07:57.803Z,11.44
2022-09-18T14:10:26.464Z,11.06
2022-09-18T14:13:07.212Z,10.70
2022-09-18T14:15:33.993Z,10.43
2022-09-18T14:18:06.855Z,10.15
2022-09-18T14:20:33.518Z,9.96
2022-09-18T14:23:18.727Z,9.90
2022-09-18T14:25:46.445Z,9.80
2022-09-18T14:28:14.585Z,9.81
2022-09-18T14:30:40.930Z,9.79
2022-09-18T14:33:17.914Z,9.71
2022-09-18T14:36:14.909Z,9.62
2022-09-18T14:38:41.388Z,9.64
2022-09-18T14:41:18.977Z,9.70
2022-09-18T14:43:48.590Z,9.67
2022-09-18T14:46:17.691Z,9.64
2022-09-18T14:48:43.948Z,9.73
2022-09-18T14:51:24.225Z,9.61
2022-09-18T14:53:53.810Z,9.70
2022-09-18T14:56:23.918Z,9.70
2022-09-18T14:58:50.692Z,9.64
2022-09-18T15:01:19.370Z,9.49
2022-09-18T15:03:47.332Z,9.53
2022-09-18T15:06:21.036Z,9.55
2022-09-18T15:08:48.368Z,9.47
2022-09-18T15:11:16.418Z,9.41
2022-09-18T15:13:42.950Z,9.31
2022-09-18T15:16:20.200Z,9.07
2022-09-18T15:18:47.139Z,8.91
2022-09-18T15:21:21.446Z,8.89
2022-09-18T15:23:47.741Z,8.81
2022-09-18T15:26:15.624Z,8.79
2022-09-18T15:28:43.133Z,8.75
2022-09-18T15:31:10.632Z,8.82
2022-09-18T15:33:40.132Z,8.86
2022-09-18T15:36:06.689Z,8.72
2022-09-18T15:38:38.416Z,8.73
2022-09-18T15:41:20.579Z,8.69
2022-09-18T15:43:46.921Z,8.73
2022-09-18T15:46:33.622Z,8.78
2022-09-18T15:49:03.020Z,8.77
2022-09-18T15:51:32.975Z,8.78
2022-09-18T15:54:12.159Z,8.84
2022-09-18T15:56:50.313Z,8.89
2022-09-18T15:59:19.292Z,8.94
2022-09-18T16:01:46.567Z,8.95
2022-09-18T16:04:28.212Z,8.95
2022-09-18T16:07:06.319Z,9.02
2022-09-18T16:09:33.545Z,9.05
2022-09-18T16:12:00.448Z,9.08
2022-09-18T16:14:46.295Z,9.06
2022-09-18T16:17:33.791Z,8.99
2022-09-18T16:20:23.122Z,8.95
2022-09-18T16:22:50.541Z,8.98
2022-09-18T16:25:21.586Z,8.93
2022-09-18T16:27:49.773Z,8.95
2022-09-18T16:30:16.067Z,8.98
2022-09-18T16:32:42.543Z,9.04
2022-09-18T16:35:12.697Z,9.01
2022-09-18T16:37:40.820Z,9.02
2022-09-18T16:40:17.588Z,9.05
2022-09-18T16:42:44.199Z,9.03
2022-09-18T16:45:11.329Z,8.99
2022-09-18T16:47:43.061Z,8.99
2022-09-18T16:50:09.532Z,9.00
2022-09-18T16:52:36.226Z,8.98
2022-09-18T16:55:02.576Z,8.95
2022-09-18T16:57:29.372Z,8.95
2022-09-18T16:59:57.210Z,8.96
2022-09-18T17:02:26.068Z,9.01
2022-09-18T17:04:52.565Z,9.01
2022-09-18T17:07:19.000Z,8.95
2022-09-18T17:09:45.273Z,9.01
2022-09-18T17:12:11.586Z,9.02
2022-09-18T17:14:37.850Z,9.01
2022-09-18T17:17:05.944Z,8.98
2022-09-18T17:19:32.529Z,9.00
2022-09-18T17:21:58.844Z,8.93
2022-09-18T17:24:27.605Z,8.94
2022-09-18T17:26:54.134Z,8.93
2022-09-18T17:29:20.996Z,8.71
2022-09-18T17:31:47.356Z,8.53
2022-09-18T17:34:16.484Z,8.51
2022-09-18T17:36:42.786Z,8.50
2022-09-18T17:39:09.246Z,8.52
2022-09-18T17:41:35.611Z,8.55
2022-09-18T17:44:02.054Z,8.48
2022-09-18T17:46:28.549Z,8.52
2022-09-18T17:48:56.505Z,8.43
2022-09-18T17:51:27.655Z,8.37
2022-09-18T17:53:59.358Z,8.22
2022-09-18T17:56:29.851Z,8.14
2022-09-18T17:58:59.632Z,8.07
2022-09-18T18:01:27.154Z,8.07
2022-09-18T18:03:54.373Z,8.04
2022-09-18T18:06:21.848Z,8.04
2022-09-18T18:08:48.399Z,8.03
2022-09-18T18:11:16.127Z,8.04
2022-09-18T18:13:43.872Z,8.06
2022-09-18T18:16:11.711Z,8.13
2022-09-18T18:18:38.434Z,8.13
2022-09-18T18:21:05.298Z,8.18
2022-09-18T18:23:31.846Z,8.14
2022-09-18T18:26:05.142Z,8.15
2022-09-18T18:28:32.050Z,8.13
2022-09-18T18:31:03.686Z,8.16
2022-09-18T18:33:31.120Z,8.19
2022-09-18T18:36:06.803Z,8.12
2022-09-18T18:38:33.056Z,8.13
2022-09-18T18:41:03.580Z,8.10
2022-09-18T18:43:30.576Z,8.10
2022-09-18T18:45:57.124Z,8.12
2022-09-18T18:48:24.016Z,8.01
2022-09-18T18:50:50.305Z,8.03
2022-09-18T18:53:17.560Z,8.06
2022-09-18T18:55:48.277Z,8.09
2022-09-18T18:58:15.682Z,8.11
2022-09-18T19:00:42.104Z,8.19
2022-09-18T19:03:08.458Z,8.14
2022-09-18T19:05:36.049Z,8.14
2022-09-18T19:08:03.133Z,8.13
2022-09-18T19:10:29.504Z,8.05
2022-09-18T19:12:57.359Z,8.02
2022-09-18T19:15:27.270Z,7.98
2022-09-18T19:17:56.321Z,7.95
2022-09-18T19:20:22.927Z,7.93
2022-09-18T19:22:56.641Z,7.94
2022-09-18T19:25:24.309Z,7.92
2022-09-18T19:27:53.697Z,7.87
2022-09-18T19:30:19.950Z,7.90
2022-09-18T19:32:46.298Z,7.86
2022-09-18T19:35:12.571Z,7.87
2022-09-18T19:37:38.915Z,7.83
2022-09-18T19:40:05.425Z,7.82
2022-09-18T19:42:31.939Z,7.79
2022-09-18T19:45:01.655Z,7.75
2022-09-18T19:47:30.287Z,7.79
2022-09-18T19:49:57.677Z,7.79
2022-09-18T19:52:24.996Z,7.78
2022-09-18T19:54:52.203Z,7.75
2022-09-18T19:57:19.780Z,7.74
2022-09-18T19:59:47.001Z,7.76
2022-09-18T20:02:13.976Z,7.73
2022-09-18T20:04:41.053Z,7.69
2022-09-18T20:07:08.425Z,7.64
2022-09-18T20:09:34.756Z,7.64
2022-09-18T20:12:01.827Z,7.60
2022-09-18T20:14:28.302Z,7.54
2022-09-18T20:16:55.467Z,7.50
2022-09-18T20:19:22.828Z,7.49
2022-09-18T20:21:50.330Z,7.45
2022-09-18T20:24:17.134Z,7.43
2022-09-18T20:26:43.478Z,7.41
2022-09-18T20:29:12.944Z,7.40
2022-09-18T20:31:42.200Z,7.39
2022-09-18T20:34:10.910Z,7.38
2022-09-18T20:36:37.519Z,7.37
2022-09-18T20:39:03.943Z,7.34
2022-09-18T20:41:30.250Z,7.34
2022-09-18T20:44:05.503Z,7.29
2022-09-18T20:46:35.261Z,7.24
2022-09-18T20:49:03.699Z,7.23
2022-09-18T20:51:32.706Z,7.21
2022-09-18T20:53:59.065Z,7.22
2022-09-18T20:56:26.751Z,7.23
2022-09-18T20:58:53.360Z,7.22
2022-09-18T21:01:21.044Z,7.21
2022-09-18T21:03:49.308Z,7.22
2022-09-18T21:06:22.774Z,7.23
2022-09-18T21:08:49.800Z,7.21
2022-09-18T21:11:17.306Z,7.22
2022-09-18T21:13:44.575Z,7.23
2022-09-18T21:16:10.981Z,7.23
2022-09-18T21:18:39.272Z,7.17
2022-09-18T21:21:07.115Z,7.18
2022-09-18T21:23:52.195Z,7.16
2022-09-18T21:26:20.631Z,7.16
2022-09-18T21:28:54.574Z,7.21
2022-09-18T21:31:21.492Z,7.22
2022-09-18T21:33:48.322Z,7.17
2022-09-18T21:36:14.985Z,7.19
2022-09-18T21:38:42.143Z,7.24
2022-09-18T21:41:10.006Z,7.32
2022-09-18T21:43:38.108Z,7.27
2022-09-18T21:46:05.346Z,7.31
2022-09-18T21:48:32.439Z,7.31
2022-09-18T21:51:02.960Z,7.31
2022-09-18T21:53:30.102Z,7.32
2022-09-18T21:56:03.078Z,7.35
2022-09-18T21:58:29.669Z,7.37
2022-09-18T22:00:55.981Z,7.33
2022-09-18T22:03:22.608Z,7.34
2022-09-18T22:05:49.106Z,7.29
2022-09-18T22:08:16.414Z,7.33
2022-09-18T22:10:42.684Z,7.29
2022-09-18T22:13:08.934Z,7.33
2022-09-18T22:15:35.251Z,7.32
2022-09-18T22:18:01.534Z,7.35
2022-09-18T22:20:28.501Z,7.36
2022-09-18T22:22:54.944Z,7.38
2022-09-18T22:25:21.292Z,7.41
2022-09-18T22:27:47.846Z,7.44
2022-09-18T22:30:14.158Z,7.45
2022-09-18T22:32:41.301Z,7.44
2022-09-18T22:35:08.004Z,7.44
2022-09-18T22:37:34.320Z,7.43
2022-09-18T22:40:00.749Z,7.42
2022-09-18T22:42:27.045Z,7.44
2022-09-18T22:44:53.625Z,7.42
2022-09-18T22:47:19.916Z,7.42
2022-09-18T22:49:46.343Z,7.44
2022-09-18T22:52:12.599Z,7.49
2022-09-18T22:54:38.910Z,7.46
2022-09-18T22:57:05.578Z,7.49
2022-09-18T22:59:31.856Z,7.49
2022-09-18T23:01:59.807Z,7.49
2022-09-18T23:04:27.877Z,7.55
2022-09-18T23:06:54.678Z,7.54
2022-09-18T23:09:20.998Z,7.53
2022-09-18T23:11:48.109Z,7.53
2022-09-18T23:14:15.867Z,7.54
2022-09-18T23:16:42.216Z,7.54
2022-09-18T23:19:12.996Z,7.53
2022-09-18T23:21:39.630Z,7.53
2022-09-18T23:24:09.130Z,7.58
2022-09-18T23:26:37.895Z,7.51
2022-09-18T23:29:07.197Z,7.56
2022-09-18T23:31:35.429Z,7.54
2022-09-18T23:34:03.856Z,7.49
2022-09-18T23:36:35.799Z,7.48
2022-09-18T23:39:06.784Z,7.47
2022-09-18T23:41:38.007Z,7.44
2022-09-18T23:44:05.517Z,7.42
2022-09-18T23:46:33.744Z,7.42
2022-09-18T23:49:00.318Z,7.40
2022-09-18T23:51:28.187Z,7.34
2022-09-18T23:53:55.254Z,7.26
2022-09-18T23:56:23.476Z,7.24
2022-09-18T23:58:57.369Z,7.19
